Time;durP1;ratioP1;P1;durP2;ratioP2;P2;SDS_P1;SDS_P2;PMS_P1;PMS_P2;Temp;Humidity;BMP_temperature;BMP_pressure;BME280_temperature;BME280_humidity;BME280_pressure;Samples;Min_cycle;Max_cycle;Signal;HPM_P1;HPM_P2
2022/06/17 00:01:52;;;;;;;2.55;1.33;;;14.50;99.90;;;;;;5023313;28;20034;-69
2022/06/17 00:04:18;;;;;;;2.10;1.27;;;14.50;99.90;;;;;;5023268;28;20030;-70
2022/06/17 00:06:48;;;;;;;2.60;1.48;;;14.60;99.90;;;;;;5023296;28;20382;-70
2022/06/17 00:09:16;;;;;;;1.73;1.02;;;14.50;99.90;;;;;;5022509;28;20026;-70
2022/06/17 00:11:42;;;;;;;1.92;1.45;;;14.50;99.90;;;;;;5022655;28;20033;-70
2022/06/17 00:14:20;;;;;;;6.70;1.58;;;14.40;99.90;;;;;;5022992;28;20029;-71
2022/06/17 00:16:48;;;;;;;2.25;1.20;;;14.50;99.90;;;;;;5022800;28;20037;-71
2022/06/17 00:19:14;;;;;;;1.50;1.30;;;14.50;99.90;;;;;;5022376;28;20018;-69
2022/06/17 00:21:43;;;;;;;2.05;1.02;;;14.50;99.90;;;;;;5023261;28;20569;-70
2022/06/17 00:24:24;;;;;;;5.93;1.48;;;14.50;99.90;;;;;;5023134;28;20041;-69
2022/06/17 00:26:50;;;;;;;2.30;1.30;;;14.40;99.90;;;;;;5022588;28;20030;-69
2022/06/17 00:29:18;;;;;;;1.70;1.20;;;14.40;99.90;;;;;;5022671;28;20532;-70
2022/06/17 00:31:44;;;;;;;2.15;1.33;;;14.30;99.90;;;;;;5022414;28;20067;-69
2022/06/17 00:34:10;;;;;;;2.20;1.38;;;14.40;99.90;;;;;;5022830;28;20037;-71
2022/06/17 00:36:36;;;;;;;1.30;1.15;;;14.30;99.90;;;;;;5022755;28;20021;-71
2022/06/17 00:39:09;;;;;;;4.10;1.73;;;14.30;99.90;;;;;;5022851;28;20018;-69
2022/06/17 00:41:37;;;;;;;2.65;1.38;;;14.30;99.90;;;;;;5023130;28;20021;-71
2022/06/17 00:44:26;;;;;;;3.17;1.70;;;14.20;99.90;;;;;;5022644;28;20030;-70
2022/06/17 00:47:06;;;;;;;2.97;1.48;;;14.20;99.90;;;;;;5022213;28;20022;-69
2022/06/17 00:49:53;;;;;;;2.45;1.70;;;14.20;99.90;;;;;;5022509;28;20018;-69
2022/06/17 00:52:39;;;;;;;1.33;1.02;;;14.20;99.90;;;;;;5022424;28;20403;-69
2022/06/17 00:55:27;;;;;;;3.55;1.25;;;14.20;99.90;;;;;;5022950;28;20025;-70
2022/06/17 00:57:53;;;;;;;2.55;1.40;;;14.20;99.90;;;;;;5022915;28;20041;-69
2022/06/17 01:00:20;;;;;;;2.95;1.33;;;14.10;99.90;;;;;;5021199;28;20034;-70
2022/06/17 01:02:53;;;;;;;2.72;1.42;;;14.10;99.90;;;;;;5022556;28;20057;-70
2022/06/17 01:05:23;;;;;;;9.95;2.38;;;14.10;99.90;;;;;;5005138;28;20064;-69
2022/06/17 01:08:03;;;;;;;3.03;1.60;;;14.00;99.90;;;;;;5021942;28;20030;-70
2022/06/17 01:10:30;;;;;;;3.28;1.48;;;14.00;99.90;;;;;;5021876;28;20624;-69
2022/06/17 01:13:00;;;;;;;3.10;1.88;;;14.00;99.90;;;;;;5022489;28;20025;-69
2022/06/17 01:15:30;;;;;;;2.63;1.35;;;13.90;99.90;;;;;;5021788;28;20081;-69
2022/06/17 01:17:56;;;;;;;5.22;1.75;;;14.00;99.90;;;;;;5021883;28;20065;-69
2022/06/17 01:20:24;;;;;;;4.18;1.48;;;13.80;99.90;;;;;;5022518;28;20037;-69
2022/06/17 01:22:56;;;;;;;1.77;1.15;;;13.80;99.90;;;;;;5021893;28;20038;-70
2022/06/17 01:25:34;;;;;;;2.38;1.30;;;13.80;99.90;;;;;;5022477;28;20473;-69
2022/06/17 01:28:07;;;;;;;2.05;1.30;;;13.80;99.90;;;;;;5022133;28;20021;-70
2022/06/17 01:30:40;;;;;;;3.97;1.92;;;13.70;99.90;;;;;;5021551;28;20061;-70
2022/06/17 01:33:25;;;;;;;3.63;1.60;;;13.70;99.90;;;;;;5022375;28;20053;-69
2022/06/17 01:36:01;;;;;;;3.17;1.70;;;13.70;99.90;;;;;;5022061;28;20022;-69
2022/06/17 01:38:29;;;;;;;4.05;1.45;;;13.70;99.90;;;;;;5022131;28;20025;-69
2022/06/17 01:40:57;;;;;;;3.65;1.75;;;13.70;99.90;;;;;;5026280;28;20038;-68
2022/06/17 01:43:28;;;;;;;1.85;1.20;;;13.60;99.90;;;;;;5025654;28;20038;-69
2022/06/17 01:46:00;;;;;;;2.25;1.42;;;13.60;99.90;;;;;;5025451;28;20022;-69
2022/06/17 01:48:32;;;;;;;8.90;1.92;;;13.60;99.90;;;;;;5025591;28;20030;-69
2022/06/17 01:50:59;;;;;;;2.78;1.60;;;13.60;99.90;;;;;;5025454;28;20037;-68
2022/06/17 01:53:29;;;;;;;3.17;1.67;;;13.60;99.90;;;;;;5026088;28;20034;-69
2022/06/17 01:56:01;;;;;;;2.42;1.50;;;13.70;99.90;;;;;;5025513;28;20022;-69
2022/06/17 01:58:33;;;;;;;2.60;1.60;;;13.70;99.90;;;;;;5025383;28;20545;-70
2022/06/17 02:01:01;;;;;;;2.83;1.80;;;13.70;99.90;;;;;;5025723;28;20061;-70
2022/06/17 02:03:35;;;;;;;3.53;2.10;;;13.70;99.90;;;;;;5025958;28;20056;-69
2022/06/17 02:06:31;;;;;;;5.73;1.90;;;13.70;99.90;;;;;;5025525;28;20057;-69
2022/06/17 02:08:57;;;;;;;3.90;1.75;;;13.70;99.90;;;;;;5012059;28;20034;-70
2022/06/17 02:11:23;;;;;;;2.63;1.65;;;13.80;99.90;;;;;;5025411;28;20044;-69
2022/06/17 02:13:48;;;;;;;5.75;1.40;;;13.70;99.90;;;;;;5025498;28;20021;-68
2022/06/17 02:16:16;;;;;;;4.45;1.83;;;13.70;99.90;;;;;;5025659;28;20026;-70
2022/06/17 02:18:43;;;;;;;1.30;1.08;;;13.70;99.90;;;;;;5024865;28;20069;-68
2022/06/17 02:21:25;;;;;;;4.13;1.92;;;13.80;99.90;;;;;;5024998;28;20077;-69
2022/06/17 02:23:52;;;;;;;4.65;1.95;;;13.80;99.90;;;;;;5025380;28;20430;-68
2022/06/17 02:26:19;;;;;;;4.18;2.17;;;13.80;99.90;;;;;;5024512;28;20033;-69
2022/06/17 02:28:46;;;;;;;3.88;1.98;;;13.80;99.90;;;;;;5025179;28;20026;-69
2022/06/17 02:31:14;;;;;;;4.45;1.85;;;13.70;99.90;;;;;;5025314;28;20398;-70
2022/06/17 02:33:41;;;;;;;2.40;1.50;;;13.80;99.90;;;;;;5024814;28;20026;-70
2022/06/17 02:36:16;;;;;;;2.60;1.77;;;13.70;99.90;;;;;;5024860;28;20025;-71
2022/06/17 02:38:42;;;;;;;2.88;1.35;;;13.80;99.90;;;;;;5025039;28;20034;-71
2022/06/17 02:41:17;;;;;;;5.75;1.73;;;13.80;99.90;;;;;;5023901;28;20030;-69
2022/06/17 02:43:55;;;;;;;2.67;1.48;;;13.80;99.90;;;;;;5024683;28;20141;-68
2022/06/17 02:46:28;;;;;;;3.40;2.03;;;13.80;99.90;;;;;;5024342;28;20030;-69
2022/06/17 02:49:02;;;;;;;2.92;1.75;;;13.80;99.90;;;;;;5024793;28;20058;-69
2022/06/17 02:51:31;;;;;;;4.20;1.70;;;13.70;99.90;;;;;;5024749;28;20042;-69
2022/06/17 02:53:58;;;;;;;4.45;2.58;;;13.70;99.90;;;;;;5024342;28;20034;-70
2022/06/17 02:56:28;;;;;;;3.08;1.85;;;13.70;99.90;;;;;;5024880;28;20022;-68
2022/06/17 02:59:23;;;;;;;2.95;1.60;;;13.70;99.90;;;;;;5024622;28;20042;-68
2022/06/17 03:01:53;;;;;;;3.25;1.60;;;13.70;99.90;;;;;;5018764;28;20033;-70
2022/06/17 03:04:22;;;;;;;2.70;1.75;;;13.60;99.90;;;;;;5024728;28;20030;-69
2022/06/17 03:06:50;;;;;;;3.83;2.30;;;13.70;99.90;;;;;;5024361;28;20053;-69
2022/06/17 03:09:18;;;;;;;5.05;1.40;;;13.80;99.90;;;;;;5024087;28;20101;-69
2022/06/17 03:11:51;;;;;;;3.63;1.52;;;13.70;99.90;;;;;;5024084;28;20038;-69
2022/06/17 03:14:18;;;;;;;2.97;1.63;;;13.60;99.90;;;;;;5024226;28;20053;-68
2022/06/17 03:16:44;;;;;;;3.30;1.63;;;13.70;99.90;;;;;;5023756;28;20052;-70
2022/06/17 03:19:11;;;;;;;4.93;2.03;;;13.70;99.90;;;;;;5024341;28;20046;-70
2022/06/17 03:21:37;;;;;;;4.15;2.30;;;13.70;99.90;;;;;;5024084;28;20037;-70
2022/06/17 03:24:25;;;;;;;3.42;2.10;;;13.70;99.90;;;;;;5024061;28;20018;-69
2022/06/17 03:27:23;;;;;;;6.60;1.90;;;13.70;99.90;;;;;;5023853;28;20096;-69
2022/06/17 03:29:51;;;;;;;3.42;2.28;;;13.70;99.90;;;;;;5023603;28;20033;-69
2022/06/17 03:32:22;;;;;;;2.70;1.67;;;13.70;99.90;;;;;;5023519;28;20030;-68
2022/06/17 03:34:52;;;;;;;3.97;2.00;;;13.60;99.90;;;;;;5023250;28;20865;-68
2022/06/17 03:37:39;;;;;;;4.28;2.38;;;13.60;99.90;;;;;;5021787;28;20029;-69
2022/06/17 03:40:11;;;;;;;4.60;1.83;;;13.60;99.90;;;;;;5005705;28;20049;-70
2022/06/17 03:42:54;;;;;;;3.83;2.25;;;13.60;99.90;;;;;;5023603;28;20564;-69
2022/06/17 03:45:43;;;;;;;5.47;2.45;;;13.60;99.90;;;;;;5022921;28;20049;-68
2022/06/17 03:48:36;;;;;;;8.48;2.53;;;13.60;99.90;;;;;;5023542;28;20097;-69
2022/06/17 03:51:02;;;;;;;6.32;2.35;;;13.60;99.90;;;;;;5022918;28;20030;-68
2022/06/17 03:53:35;;;;;;;5.90;2.75;;;13.70;99.90;;;;;;5023928;28;20104;-68
2022/06/17 03:56:09;;;;;;;9.00;2.63;;;13.70;99.90;;;;;;5023538;28;20044;-68
2022/06/17 03:58:38;;;;;;;7.15;3.22;;;13.80;99.90;;;;;;5023873;28;20025;-71
2022/06/17 04:01:28;;;;;;;5.72;2.95;;;13.80;99.90;;;;;;5023101;28;20034;-70
2022/06/17 04:03:57;;;;;;;7.00;2.97;;;13.80;99.90;;;;;;5022960;28;20038;-70
2022/06/17 04:06:30;;;;;;;5.65;2.90;;;13.80;99.90;;;;;;5023163;28;20025;-70
2022/06/17 04:09:02;;;;;;;4.85;2.72;;;13.90;99.90;;;;;;5023170;28;20517;-70
2022/06/17 04:11:35;;;;;;;7.03;2.58;;;13.90;99.90;;;;;;5021204;28;20045;-70
2022/06/17 04:14:05;;;;;;;4.25;2.67;;;13.90;99.90;;;;;;5020809;28;20033;-70
2022/06/17 04:16:58;;;;;;;5.57;2.90;;;14.00;99.90;;;;;;5022993;28;20099;-70
2022/06/17 04:19:26;;;;;;;5.60;2.72;;;13.90;99.90;;;;;;4989051;28;20049;-70
2022/06/17 04:21:53;;;;;;;5.57;3.03;;;14.00;99.90;;;;;;5022142;28;20028;-70
2022/06/17 04:24:25;;;;;;;4.78;2.50;;;14.00;99.90;;;;;;5014015;28;20030;-70
2022/06/17 04:27:03;;;;;;;5.35;2.78;;;14.00;99.90;;;;;;5021804;28;20032;-71
2022/06/17 04:29:38;;;;;;;5.55;2.70;;;14.10;99.90;;;;;;5022706;28;20065;-71
2022/06/17 04:32:16;;;;;;;8.75;2.85;;;14.00;99.90;;;;;;5003829;28;20038;-71
2022/06/17 04:34:42;;;;;;;6.07;3.40;;;14.10;99.90;;;;;;5021593;28;20032;-72
2022/06/17 04:37:19;;;;;;;4.25;2.53;;;14.10;99.90;;;;;;5022844;28;20038;-71
2022/06/17 04:39:47;;;;;;;5.75;2.45;;;14.20;99.90;;;;;;5022268;28;20037;-72
2022/06/17 04:42:20;;;;;;;8.77;3.35;;;14.20;99.90;;;;;;5022152;28;20038;-71
2022/06/17 04:44:46;;;;;;;7.00;3.08;;;14.30;99.90;;;;;;5022393;28;20474;-73
2022/06/17 04:47:19;;;;;;;10.93;2.67;;;14.30;99.90;;;;;;5022990;28;20018;-71
2022/06/17 04:49:59;;;;;;;8.30;3.55;;;14.40;99.90;;;;;;5022448;28;20112;-70
2022/06/17 04:52:32;;;;;;;8.23;3.17;;;14.40;99.90;;;;;;5021911;28;20037;-71
2022/06/17 04:54:59;;;;;;;5.32;2.88;;;14.40;99.90;;;;;;5022590;28;20028;-71
2022/06/17 04:57:26;;;;;;;3.13;2.63;;;14.40;99.90;;;;;;5021956;28;20101;-71
2022/06/17 04:59:52;;;;;;;5.05;3.25;;;14.50;99.90;;;;;;5022288;28;20277;-70
2022/06/17 05:02:22;;;;;;;5.22;2.47;;;14.60;99.90;;;;;;5021533;28;20049;-70
2022/06/17 05:04:53;;;;;;;3.70;2.38;;;14.70;99.90;;;;;;5012764;28;20025;-71
2022/06/17 05:07:19;;;;;;;4.78;2.83;;;14.70;99.90;;;;;;5018349;28;20034;-71
2022/06/17 05:09:51;;;;;;;5.55;2.83;;;14.80;99.90;;;;;;5021790;28;20045;-70
2022/06/17 05:12:24;;;;;;;4.88;2.80;;;14.90;99.90;;;;;;5020931;28;20033;-71
2022/06/17 05:15:01;;;;;;;7.07;3.60;;;14.90;99.90;;;;;;5021531;28;20028;-71
2022/06/17 05:17:27;;;;;;;4.10;2.35;;;15.00;99.90;;;;;;5022280;28;20081;-71
2022/06/17 05:19:55;;;;;;;5.55;2.33;;;15.10;99.90;;;;;;5021569;28;20026;-71
2022/06/17 05:22:35;;;;;;;5.57;3.03;;;15.10;99.90;;;;;;5022430;28;20037;-71
2022/06/17 05:25:04;;;;;;;9.52;2.22;;;15.20;99.90;;;;;;5021316;28;20033;-72
2022/06/17 05:27:29;;;;;;;4.35;2.42;;;15.30;99.90;;;;;;5020950;28;20033;-72
2022/06/17 05:29:55;;;;;;;6.20;3.13;;;15.30;99.90;;;;;;5022306;28;20018;-70
2022/06/17 05:32:21;;;;;;;10.48;2.85;;;15.40;99.90;;;;;;5020804;28;20041;-71
2022/06/17 05:34:47;;;;;;;4.43;2.60;;;15.50;99.90;;;;;;5003478;28;20376;-71
2022/06/17 05:37:14;;;;;;;5.35;3.05;;;15.50;99.90;;;;;;5021635;28;20038;-70
2022/06/17 05:39:40;;;;;;;3.70;2.42;;;15.60;99.90;;;;;;5022098;28;20510;-72
2022/06/17 05:42:07;;;;;;;6.18;2.53;;;15.70;99.90;;;;;;5021569;28;20026;-72
2022/06/17 05:44:33;;;;;;;6.53;3.00;;;15.70;99.90;;;;;;5022355;28;20052;-71
2022/06/17 05:46:59;;;;;;;9.35;3.10;;;15.80;99.90;;;;;;5022173;28;20032;-71
2022/06/17 05:49:25;;;;;;;8.55;2.47;;;16.00;99.90;;;;;;5022054;28;20026;-71
2022/06/17 05:51:51;;;;;;;4.70;2.38;;;16.00;99.90;;;;;;5018408;28;20041;-70
2022/06/17 05:54:17;;;;;;;13.40;2.85;;;16.00;99.90;;;;;;5020386;28;20014;-71
2022/06/17 05:56:43;;;;;;;5.32;2.72;;;16.10;99.90;;;;;;5014314;28;20029;-72
2022/06/17 05:59:17;;;;;;;5.97;2.42;;;16.20;99.90;;;;;;5017032;28;20037;-75
2022/06/17 06:01:43;;;;;;;4.20;2.95;;;16.30;99.90;;;;;;5020409;28;20127;-73
2022/06/17 06:04:10;;;;;;;9.48;3.13;;;16.40;99.90;;;;;;5021359;28;20049;-73
2022/06/17 06:06:35;;;;;;;9.98;3.38;;;16.40;99.90;;;;;;5019914;28;20022;-71
2022/06/17 06:09:02;;;;;;;13.43;4.38;;;16.50;99.90;;;;;;5020458;28;20061;-70
2022/06/17 06:11:27;;;;;;;10.05;3.28;;;16.60;99.90;;;;;;5020354;28;20038;-71
2022/06/17 06:13:53;;;;;;;8.00;3.53;;;16.60;99.90;;;;;;5022303;28;20022;-70
2022/06/17 06:16:18;;;;;;;6.10;2.92;;;16.70;99.90;;;;;;5021452;28;20029;-71
2022/06/17 06:18:47;;;;;;;6.40;3.33;;;16.70;99.90;;;;;;5021832;28;20070;-72
2022/06/17 06:21:12;;;;;;;5.68;3.08;;;16.80;99.90;;;;;;5021776;28;20030;-71
2022/06/17 06:23:39;;;;;;;4.95;3.15;;;16.90;99.90;;;;;;5020932;28;20509;-72
2022/06/17 06:26:08;;;;;;;6.28;3.15;;;16.90;99.90;;;;;;5024741;28;20148;-71
2022/06/17 06:28:39;;;;;;;4.78;2.30;;;17.00;99.90;;;;;;5025434;28;20030;-72
2022/06/17 06:31:11;;;;;;;5.38;2.88;;;17.10;99.90;;;;;;5024413;28;20037;-72
2022/06/17 06:33:38;;;;;;;5.80;2.88;;;17.10;99.90;;;;;;5024523;28;20022;-71
2022/06/17 06:36:04;;;;;;;4.55;2.30;;;17.30;99.90;;;;;;5024868;28;20030;-71
2022/06/17 06:38:30;;;;;;;5.13;2.70;;;17.40;99.90;;;;;;5023758;28;20095;-71
2022/06/17 06:40:56;;;;;;;8.85;2.42;;;17.50;99.90;;;;;;5023306;28;20026;-70
2022/06/17 06:43:22;;;;;;;8.43;2.78;;;17.60;99.90;;;;;;5024081;28;20026;-72
2022/06/17 06:45:50;;;;;;;4.40;2.60;;;17.70;99.90;;;;;;5024963;28;20022;-72
2022/06/17 06:48:19;;;;;;;6.47;2.50;;;17.90;99.90;;;;;;5023847;28;20021;-69
2022/06/17 06:50:45;;;;;;;7.50;3.03;;;18.00;99.90;;;;;;5020541;28;20048;-71
2022/06/17 06:53:10;;;;;;;8.10;2.67;;;18.20;99.90;;;;;;5021914;28;20490;-71
2022/06/17 06:55:38;;;;;;;4.15;2.03;;;18.30;99.90;;;;;;5021965;28;20057;-70
2022/06/17 06:58:15;;;;;;;4.38;2.00;;;18.50;99.90;;;;;;5021896;28;20129;-68
2022/06/17 07:00:47;;;;;;;8.75;2.95;;;18.70;99.90;;;;;;5021706;28;20447;-72
2022/06/17 07:03:15;;;;;;;5.05;1.80;;;18.70;99.90;;;;;;5023853;28;20029;-71
2022/06/17 07:05:44;;;;;;;3.03;1.48;;;18.80;99.90;;;;;;5023453;28;20022;-72
2022/06/17 07:08:12;;;;;;;2.63;1.42;;;18.80;99.90;;;;;;5022487;28;20868;-72
2022/06/17 07:10:39;;;;;;;2.33;1.48;;;18.90;99.90;;;;;;5023866;28;20028;-70
2022/06/17 07:13:08;;;;;;;1.77;1.27;;;18.90;99.90;;;;;;5022917;28;20030;-70
2022/06/17 07:15:37;;;;;;;2.72;1.60;;;19.00;99.90;;;;;;5022499;28;20036;-70
2022/06/17 07:18:15;;;;;;;2.83;1.15;;;19.10;99.90;;;;;;5022109;28;20049;-70
2022/06/17 07:20:46;;;;;;;2.55;1.75;;;19.10;99.90;;;;;;5024071;28;20021;-71
2022/06/17 07:23:19;;;;;;;2.28;1.50;;;19.20;99.90;;;;;;5022853;28;20036;-71
2022/06/17 07:25:45;;;;;;;5.97;1.92;;;19.20;99.90;;;;;;5022805;28;20060;-71
2022/06/17 07:28:20;;;;;;;6.55;1.83;;;19.20;99.90;;;;;;5023788;28;20068;-71
2022/06/17 07:30:48;;;;;;;3.17;1.75;;;19.30;99.90;;;;;;5021960;28;20033;-69
2022/06/17 07:33:15;;;;;;;5.07;2.20;;;19.40;99.90;;;;;;5022950;28;20022;-69
2022/06/17 07:35:45;;;;;;;2.22;1.55;;;19.50;99.90;;;;;;5023598;28;20089;-70
2022/06/17 07:40:59;;;;;;;8.75;1.95;;;19.60;99.90;;;;;;5021541;28;20105;-69
2022/06/17 07:43:30;;;;;;;3.67;2.00;;;19.70;99.90;;;;;;5022119;28;20034;-70
2022/06/17 07:45:56;;;;;;;5.47;2.00;;;19.80;99.90;;;;;;5022135;28;20181;-71
2022/06/17 07:48:23;;;;;;;3.85;1.92;;;19.80;99.90;;;;;;5005103;28;20435;-70
2022/06/17 07:50:49;;;;;;;2.33;1.60;;;19.90;99.90;;;;;;5021895;28;20033;-69
2022/06/17 07:53:16;;;;;;;13.63;2.33;;;19.90;99.90;;;;;;5022828;28;20033;-69
2022/06/17 07:55:43;;;;;;;2.17;1.33;;;20.00;99.90;;;;;;5005037;28;20094;-69
2022/06/17 07:58:12;;;;;;;3.38;1.88;;;20.00;99.90;;;;;;5023815;28;20037;-68
2022/06/17 08:00:41;;;;;;;3.88;1.77;;;20.00;99.90;;;;;;5022292;28;20057;-70
2022/06/17 08:03:10;;;;;;;2.67;1.73;;;20.10;99.90;;;;;;5022781;28;20081;-68
2022/06/17 08:05:44;;;;;;;3.33;1.83;;;20.20;99.90;;;;;;5022363;28;20109;-70
2022/06/17 08:08:12;;;;;;;2.90;1.92;;;20.30;99.90;;;;;;5022764;28;20068;-71
2022/06/17 08:10:38;;;;;;;3.38;1.90;;;20.40;99.90;;;;;;5022873;28;20076;-70
2022/06/17 08:13:11;;;;;;;3.58;1.52;;;20.50;99.90;;;;;;5022703;28;20022;-71
2022/06/17 08:15:40;;;;;;;6.13;2.13;;;20.60;99.90;;;;;;5023059;28;20041;-70
2022/06/17 08:18:06;;;;;;;4.18;1.30;;;20.70;99.90;;;;;;5023086;28;20125;-72
2022/06/17 08:20:33;;;;;;;5.00;1.58;;;20.70;99.90;;;;;;5020503;28;20045;-69
2022/06/17 08:23:00;;;;;;;5.30;2.00;;;20.80;99.90;;;;;;5022186;28;20026;-70
2022/06/17 08:25:25;;;;;;;4.47;1.40;;;20.80;99.90;;;;;;5021077;28;20915;-69
2022/06/17 08:27:54;;;;;;;1.80;1.00;;;20.90;99.90;;;;;;5021957;28;20082;-69
2022/06/17 08:30:23;;;;;;;7.03;1.50;;;20.80;99.90;;;;;;5021836;28;20047;-70
2022/06/17 08:32:51;;;;;;;2.40;1.50;;;20.90;99.90;;;;;;5022453;28;20038;-72
2022/06/17 08:35:22;;;;;;;2.53;1.13;;;20.90;99.90;;;;;;5022569;28;20454;-70
2022/06/17 08:37:53;;;;;;;3.58;1.88;;;20.90;99.90;;;;;;5015835;28;20040;-71
2022/06/17 08:40:22;;;;;;;3.00;1.33;;;21.00;99.90;;;;;;5020423;28;20030;-70
2022/06/17 08:43:16;;;;;;;1.98;1.23;;;20.90;99.90;;;;;;5021680;28;20512;-69
2022/06/17 08:45:53;;;;;;;2.53;1.58;;;21.00;99.90;;;;;;4997747;28;20041;-70
2022/06/17 08:48:46;;;;;;;2.28;1.50;;;21.10;99.90;;;;;;5022061;28;20034;-70
2022/06/17 08:51:33;;;;;;;1.95;1.40;;;21.10;99.90;;;;;;5022009;28;20107;-71
2022/06/17 08:54:29;;;;;;;4.22;2.08;;;21.20;99.90;;;;;;5022649;28;20030;-70
2022/06/17 08:57:00;;;;;;;3.05;1.65;;;21.30;99.90;;;;;;5003509;28;20394;-70
2022/06/17 08:59:45;;;;;;;2.70;1.60;;;21.30;99.90;;;;;;5022244;28;20043;-70
2022/06/17 09:02:20;;;;;;;2.28;1.63;;;21.40;99.90;;;;;;5021238;28;20034;-70
2022/06/17 09:05:00;;;;;;;2.70;1.67;;;21.40;99.90;;;;;;5021415;28;20065;-71
2022/06/17 09:07:32;;;;;;;3.30;1.92;;;21.50;99.90;;;;;;5021217;28;20873;-70
2022/06/17 09:10:22;;;;;;;4.88;1.63;;;21.50;99.90;;;;;;5021997;28;20033;-70
2022/06/17 09:13:05;;;;;;;2.58;1.38;;;21.60;99.90;;;;;;5020359;28;20049;-70
2022/06/17 09:15:41;;;;;;;2.00;1.40;;;21.60;99.90;;;;;;5021722;28;20041;-70
2022/06/17 09:18:22;;;;;;;4.88;1.58;;;21.60;99.90;;;;;;5022243;28;20049;-71
2022/06/17 09:21:01;;;;;;;3.22;1.58;;;21.70;99.90;;;;;;5021752;28;20056;-72
2022/06/17 09:23:32;;;;;;;3.45;1.70;;;21.80;99.90;;;;;;5020223;28;20022;-70
2022/06/17 09:25:59;;;;;;;3.88;2.15;;;21.80;99.90;;;;;;5021391;28;20691;-72
2022/06/17 09:28:32;;;;;;;3.20;1.83;;;21.80;99.90;;;;;;5021849;28;20049;-71
2022/06/17 09:31:13;;;;;;;2.53;1.65;;;22.00;99.90;;;;;;5019826;28;20036;-72
2022/06/17 09:34:08;;;;;;;6.97;1.80;;;22.10;99.90;;;;;;5019487;28;20053;-69
2022/06/17 09:36:44;;;;;;;2.75;1.63;;;22.30;99.90;;;;;;5019682;28;20029;-71
2022/06/17 09:39:15;;;;;;;2.53;1.63;;;22.40;99.90;;;;;;5019645;28;20041;-70
2022/06/17 09:42:07;;;;;;;3.25;1.83;;;22.60;99.90;;;;;;5021159;28;20088;-71
2022/06/17 09:44:38;;;;;;;3.50;1.90;;;22.70;99.90;;;;;;5021158;28;20029;-69
2022/06/17 09:47:20;;;;;;;3.20;1.63;;;22.80;99.90;;;;;;5021429;28;20063;-71
2022/06/17 09:49:56;;;;;;;6.55;1.60;;;22.80;99.90;;;;;;5021177;28;20026;-69
2022/06/17 09:52:22;;;;;;;9.00;1.52;;;22.80;99.90;;;;;;5021428;28;20037;-69
2022/06/17 09:55:16;;;;;;;3.40;1.80;;;22.80;99.90;;;;;;5021080;28;20076;-69
2022/06/17 09:58:02;;;;;;;3.80;1.80;;;22.80;99.90;;;;;;5004834;28;20379;-69
2022/06/17 10:00:41;;;;;;;3.47;1.60;;;22.90;99.90;;;;;;5021176;28;20049;-70
2022/06/17 10:03:19;;;;;;;1.77;1.55;;;22.80;99.90;;;;;;5022094;28;20041;-70
2022/06/17 10:06:19;;;;;;;3.75;2.17;;;22.80;99.90;;;;;;5024431;28;20026;-68
2022/06/17 10:08:49;;;;;;;6.47;1.75;;;22.70;99.90;;;;;;5024493;28;20018;-69
2022/06/17 10:11:53;;;;;;;3.65;1.23;;;22.60;99.90;;;;;;5024967;28;20049;-68
2022/06/17 10:14:33;;;;;;;4.53;1.58;;;22.60;99.90;;;;;;4944770;29;20034;-69
2022/06/17 10:20:28;;;;;;;;;;;22.60;99.90;;;;;;5025512;28;20525;-69
2022/06/17 10:23:12;;;;;;;1.40;1.20;;;22.60;99.90;;;;;;5016169;28;19916;-70
2022/06/17 10:25:54;;;;;;;2.65;1.20;;;22.60;99.90;;;;;;5024748;28;20025;-69
2022/06/17 10:28:41;;;;;;;4.40;2.20;;;22.60;99.90;;;;;;5023692;28;20034;-68
2022/06/17 10:31:28;;;;;;;3.05;1.58;;;22.70;99.90;;;;;;5023891;28;20038;-72
2022/06/17 10:33:57;;;;;;;3.78;1.92;;;22.80;99.90;;;;;;5024239;28;20474;-70
2022/06/17 10:36:23;;;;;;;8.68;2.25;;;22.70;99.90;;;;;;5023656;28;20030;-69
2022/06/17 10:38:49;;;;;;;4.80;1.90;;;22.80;99.90;;;;;;5024526;28;20040;-70
2022/06/17 10:41:16;;;;;;;6.72;2.08;;;22.80;99.90;;;;;;5022049;28;20117;-70
2022/06/17 10:43:51;;;;;;;4.45;1.92;;;22.90;99.90;;;;;;5024387;28;20086;-70
2022/06/17 10:46:28;;;;;;;3.30;1.98;;;23.00;99.90;;;;;;5022787;28;20539;-69
2022/06/17 10:49:03;;;;;;;2.72;1.65;;;23.00;99.90;;;;;;5023225;28;21035;-69
2022/06/17 10:51:32;;;;;;;2.83;1.73;;;23.20;99.90;;;;;;5022508;28;20203;-69
2022/06/17 10:54:29;;;;;;;5.90;2.22;;;23.20;99.90;;;;;;5023014;28;20021;-69
2022/06/17 10:57:12;;;;;;;3.97;1.80;;;23.30;99.90;;;;;;5007408;28;20034;-70
2022/06/17 10:59:43;;;;;;;3.13;1.58;;;23.40;99.90;;;;;;5022855;28;20536;-69
2022/06/17 11:02:21;;;;;;;4.35;2.35;;;23.50;99.90;;;;;;5022808;28;20037;-71
2022/06/17 11:04:56;;;;;;;10.70;2.53;;;23.60;99.90;;;;;;5022419;28;20498;-70
2022/06/17 11:07:27;;;;;;;2.75;1.90;;;23.80;99.90;;;;;;5022516;28;20022;-70
2022/06/17 11:09:56;;;;;;;6.75;2.67;;;24.20;99.90;;;;;;5022998;28;20108;-71
2022/06/17 11:12:35;;;;;;;4.85;3.03;;;24.50;99.90;;;;;;5021408;28;20053;-69
2022/06/17 11:15:05;;;;;;;5.22;2.67;;;24.50;99.90;;;;;;5022562;28;20114;-72
2022/06/17 11:17:39;;;;;;;5.13;2.40;;;24.70;99.90;;;;;;5021389;28;20042;-68
2022/06/17 11:20:28;;;;;;;5.05;2.30;;;24.70;99.90;;;;;;5020665;28;20040;-70
2022/06/17 11:23:01;;;;;;;4.15;2.33;;;24.90;99.90;;;;;;5019391;28;20080;-69
2022/06/17 11:25:34;;;;;;;6.05;2.63;;;25.00;99.90;;;;;;5022427;28;20026;-70
2022/06/17 11:28:12;;;;;;;3.10;2.42;;;24.90;99.90;;;;;;5021881;28;20026;-70
2022/06/17 11:30:57;;;;;;;6.25;2.28;;;24.80;99.90;;;;;;5022766;28;20049;-70
2022/06/17 11:33:27;;;;;;;;;;;24.80;99.90;;;;;;5022600;28;20037;-69
2022/06/17 11:36:00;;;;;;;5.88;2.15;;;24.90;99.90;;;;;;5021109;28;19917;-69
2022/06/17 11:38:27;;;;;;;5.55;2.40;;;25.10;99.90;;;;;;5022090;28;20030;-68
2022/06/17 11:40:57;;;;;;;4.22;2.53;;;25.10;99.90;;;;;;5019744;28;20041;-67
2022/06/17 11:43:43;;;;;;;4.07;2.53;;;25.00;99.90;;;;;;5021043;28;20044;-70
2022/06/17 11:46:19;;;;;;;3.67;2.17;;;24.90;99.90;;;;;;5021875;28;20104;-69
2022/06/17 11:48:49;;;;;;;3.13;2.35;;;24.80;99.90;;;;;;5020522;28;20037;-70
2022/06/17 11:51:24;;;;;;;3.95;2.08;;;24.70;99.90;;;;;;5020974;28;20034;-70
2022/06/17 11:54:00;;;;;;;4.25;2.20;;;24.70;99.90;;;;;;5021874;28;20090;-69
2022/06/17 11:56:29;;;;;;;4.65;2.03;;;24.70;99.90;;;;;;5002314;28;20026;-70
2022/06/17 11:58:59;;;;;;;2.78;1.65;;;24.60;99.90;;;;;;5020954;28;20026;-69
2022/06/17 12:01:25;;;;;;;4.28;1.88;;;24.60;99.90;;;;;;5021588;28;20029;-68
2022/06/17 12:03:50;;;;;;;3.92;1.77;;;24.50;99.90;;;;;;5021871;28;20037;-68
2022/06/17 12:06:29;;;;;;;2.83;1.95;;;24.50;99.90;;;;;;5022099;28;20137;-70
2022/06/17 12:09:10;;;;;;;4.20;2.28;;;24.40;99.90;;;;;;5021230;28;20049;-71
2022/06/17 12:11:47;;;;;;;3.63;2.17;;;24.40;99.90;;;;;;5021635;28;20065;-71
2022/06/17 12:14:39;;;;;;;2.78;1.95;;;24.40;99.90;;;;;;5021883;28;20030;-70
2022/06/17 12:17:11;;;;;;;2.90;1.80;;;24.40;99.90;;;;;;5020526;28;20034;-69
2022/06/17 12:19:37;;;;;;;3.10;1.95;;;24.40;99.90;;;;;;5020762;28;20030;-71
2022/06/17 12:22:28;;;;;;;3.30;1.52;;;24.40;99.90;;;;;;5022497;28;20044;-69
2022/06/17 12:25:06;;;;;;;8.80;1.95;;;24.40;99.90;;;;;;5021635;28;20026;-70
2022/06/17 12:27:37;;;;;;;3.50;1.70;;;24.30;99.90;;;;;;5021934;28;20061;-69
2022/06/17 12:30:19;;;;;;;2.83;1.85;;;24.30;99.90;;;;;;5022466;28;20117;-69
2022/06/17 12:33:11;;;;;;;2.72;1.73;;;24.10;99.90;;;;;;5013786;28;20044;-73
2022/06/17 12:35:45;;;;;;;3.13;1.67;;;24.00;99.90;;;;;;5016319;28;20045;-70
2022/06/17 12:38:22;;;;;;;3.28;2.25;;;23.90;99.90;;;;;;5017846;28;20037;-71
2022/06/17 12:40:56;;;;;;;4.10;2.15;;;23.90;99.90;;;;;;5020932;28;20044;-69
2022/06/17 12:43:38;;;;;;;3.60;1.90;;;23.80;99.90;;;;;;5021558;28;20034;-71
2022/06/17 12:46:11;;;;;;;8.32;1.85;;;23.80;99.90;;;;;;5019889;28;20030;-70
2022/06/17 12:54:59;;;;;;;10.90;1.63;;;23.90;99.90;;;;;;5020022;28;20048;-72
2022/06/17 12:57:54;;;;;;;2.72;1.80;;;23.90;99.90;;;;;;5018871;28;20030;-70
2022/06/17 13:00:30;;;;;;;3.42;2.03;;;23.80;99.90;;;;;;4933777;28;20057;-69
2022/06/17 13:03:20;;;;;;;5.45;1.73;;;23.90;99.90;;;;;;5021673;28;20021;-70
2022/06/17 13:05:47;;;;;;;5.82;2.42;;;23.90;99.90;;;;;;5021114;28;20052;-70
2022/06/17 13:08:50;;;;;;;6.30;2.25;;;23.90;99.90;;;;;;5020893;28;20089;-71
2022/06/17 13:11:16;;;;;;;4.45;1.88;;;23.90;99.90;;;;;;5022041;28;20037;-71
2022/06/17 13:14:07;;;;;;;3.92;2.40;;;23.90;99.90;;;;;;5021962;28;20490;-72
2022/06/17 13:16:35;;;;;;;3.95;1.95;;;23.90;99.90;;;;;;5022007;28;20346;-70
2022/06/17 13:19:12;;;;;;;3.30;2.00;;;23.90;99.90;;;;;;5020304;28;20045;-71
2022/06/17 13:21:43;;;;;;;4.07;2.42;;;23.90;99.90;;;;;;5021063;28;20034;-69
2022/06/17 13:24:35;;;;;;;2.95;1.80;;;23.90;99.90;;;;;;5020266;28;20026;-70
2022/06/17 13:27:14;;;;;;;2.40;1.55;;;23.90;99.90;;;;;;5022114;28;20029;-69
2022/06/17 13:29:57;;;;;;;3.50;1.73;;;24.00;99.90;;;;;;5021855;28;20046;-74
2022/06/17 13:32:43;;;;;;;3.95;2.00;;;24.00;99.90;;;;;;5018508;28;20053;-68